AAL1816 KDFW-KATL
Flight info
| Callsign | AAL1816 |
|---|---|
| Flight time | N/A |
| Altitude | 37000 |
| Route | TRYTN4 LOOSE MEMFS HUTCC KNSAW RUSSA GLAVN2 |
| Aircraft | B738/M-SDE2E3FGHIRWXY/LB1 |
Departure
| Time | 2026-05-06 21:26 |
|---|---|
| Airport | Dallas Fort Worth International Airport (KDFW) |
Arrival
| Time | N/A |
|---|---|
| Airport | Hartsfield Jackson Atlanta International Airport (KATL) |
| Time | Latitude | Longitude | Altitude | Speed | Heading |
|---|---|---|---|---|---|
| 2026-05-06 20:59 | 32.90743 | -97.03754 | 592 ft | 0 kts | 195° |
| 2026-05-06 21:09 | 32.90744 | -97.03753 | 592 ft | 1 kts | 195° |
| 2026-05-06 21:09 | 32.90753 | -97.03749 | 592 ft | 2 kts | 196° |
| 2026-05-06 21:09 | 32.90768 | -97.03749 | 592 ft | 2 kts | 168° |
| 2026-05-06 21:10 | 32.90782 | -97.03755 | 591 ft | 2 kts | 149° |
| 2026-05-06 21:10 | 32.90794 | -97.03766 | 591 ft | 2 kts | 130° |
| 2026-05-06 21:10 | 32.90802 | -97.03780 | 592 ft | 2 kts | 111° |
| 2026-05-06 21:10 | 32.90805 | -97.03797 | 592 ft | 0 kts | 93° |
| 2026-05-06 21:11 | 32.90805 | -97.03804 | 592 ft | 1 kts | 89° |
| 2026-05-06 21:11 | 32.90805 | -97.03805 | 592 ft | 0 kts | 90° |
| 2026-05-06 21:14 | 32.90805 | -97.03799 | 592 ft | 1 kts | 88° |
| 2026-05-06 21:14 | 32.90806 | -97.03778 | 592 ft | 3 kts | 88° |
| 2026-05-06 21:15 | 32.90806 | -97.03704 | 590 ft | 15 kts | 96° |
| 2026-05-06 21:15 | 32.90774 | -97.03600 | 590 ft | 11 kts | 123° |
| 2026-05-06 21:15 | 32.90726 | -97.03542 | 589 ft | 9 kts | 138° |
| 2026-05-06 21:15 | 32.90669 | -97.03466 | 587 ft | 13 kts | 107° |
| 2026-05-06 21:16 | 32.90663 | -97.03352 | 584 ft | 12 kts | 93° |
| 2026-05-06 21:16 | 32.90596 | -97.03311 | 584 ft | 11 kts | 178° |
| 2026-05-06 21:16 | 32.90506 | -97.03313 | 583 ft | 16 kts | 180° |
| 2026-05-06 21:16 | 32.90384 | -97.03313 | 583 ft | 17 kts | 180° |
| 2026-05-06 21:17 | 32.90260 | -97.03313 | 582 ft | 17 kts | 180° |
| 2026-05-06 21:17 | 32.90138 | -97.03313 | 582 ft | 16 kts | 180° |
| 2026-05-06 21:17 | 32.90020 | -97.03314 | 580 ft | 18 kts | 180° |
| 2026-05-06 21:17 | 32.89869 | -97.03316 | 580 ft | 21 kts | 180° |
| 2026-05-06 21:18 | 32.89717 | -97.03316 | 578 ft | 21 kts | 180° |
| 2026-05-06 21:18 | 32.89569 | -97.03316 | 577 ft | 21 kts | 180° |
| 2026-05-06 21:18 | 32.89423 | -97.03316 | 575 ft | 20 kts | 180° |
| 2026-05-06 21:18 | 32.89281 | -97.03317 | 574 ft | 20 kts | 180° |
| 2026-05-06 21:19 | 32.89145 | -97.03318 | 573 ft | 19 kts | 180° |
| 2026-05-06 21:19 | 32.89013 | -97.03319 | 573 ft | 18 kts | 180° |
| 2026-05-06 21:19 | 32.88885 | -97.03320 | 572 ft | 17 kts | 180° |
| 2026-05-06 21:19 | 32.88764 | -97.03320 | 571 ft | 17 kts | 180° |
| 2026-05-06 21:20 | 32.88647 | -97.03321 | 571 ft | 16 kts | 180° |
| 2026-05-06 21:20 | 32.88557 | -97.03323 | 571 ft | 10 kts | 180° |
| 2026-05-06 21:20 | 32.88506 | -97.03309 | 570 ft | 6 kts | 157° |
| 2026-05-06 21:20 | 32.88465 | -97.03291 | 570 ft | 5 kts | 170° |
| 2026-05-06 21:21 | 32.88415 | -97.03289 | 570 ft | 11 kts | 180° |
| 2026-05-06 21:21 | 32.88322 | -97.03290 | 569 ft | 13 kts | 180° |
| 2026-05-06 21:21 | 32.88229 | -97.03289 | 568 ft | 13 kts | 179° |
| 2026-05-06 21:21 | 32.88129 | -97.03290 | 567 ft | 14 kts | 181° |
| 2026-05-06 21:22 | 32.88058 | -97.03292 | 566 ft | 8 kts | 181° |
| 2026-05-06 21:22 | 32.88038 | -97.03293 | 566 ft | 1 kts | 181° |
| 2026-05-06 21:22 | 32.88014 | -97.03290 | 566 ft | 8 kts | 164° |
| 2026-05-06 21:22 | 32.87977 | -97.03208 | 566 ft | 12 kts | 91° |
| 2026-05-06 21:23 | 32.87977 | -97.03136 | 566 ft | 0 kts | 89° |
| 2026-05-06 21:23 | 32.87977 | -97.03133 | 566 ft | 1 kts | 89° |
| 2026-05-06 21:23 | 32.87977 | -97.03120 | 566 ft | 2 kts | 89° |
| 2026-05-06 21:23 | 32.87984 | -97.03045 | 566 ft | 12 kts | 64° |
| 2026-05-06 21:24 | 32.88052 | -97.03010 | 567 ft | 7 kts | 359° |
| 2026-05-06 21:24 | 32.88055 | -97.03010 | 567 ft | 0 kts | 359° |
| 2026-05-06 21:25 | 32.88057 | -97.03010 | 567 ft | 0 kts | 359° |
| 2026-05-06 21:25 | 32.88066 | -97.03010 | 567 ft | 8 kts | 359° |
| 2026-05-06 21:26 | 32.88400 | -97.03008 | 568 ft | 84 kts | 0° |
| 2026-05-06 21:26 | 32.89215 | -97.03005 | 570 ft | 146 kts | 360° |
| 2026-05-06 21:26 | 32.90255 | -97.03011 | 1209 ft | 146 kts | 359° |
| 2026-05-06 21:26 | 32.91237 | -97.03033 | 2016 ft | 142 kts | 359° |
| 2026-05-06 21:27 | 32.92248 | -97.03017 | 2522 ft | 150 kts | 5° |
| 2026-05-06 21:27 | 32.93312 | -97.02935 | 3001 ft | 160 kts | 4° |
| 2026-05-06 21:27 | 32.94485 | -97.02898 | 3472 ft | 173 kts | 1° |
| 2026-05-06 21:27 | 32.95734 | -97.02879 | 3840 ft | 192 kts | 1° |
| 2026-05-06 21:28 | 32.97143 | -97.02840 | 4284 ft | 210 kts | 1° |
| 2026-05-06 21:28 | 32.98661 | -97.02795 | 4774 ft | 227 kts | 0° |
| 2026-05-06 21:28 | 33.00300 | -97.02747 | 5252 ft | 244 kts | 359° |
| 2026-05-06 21:28 | 33.02067 | -97.02696 | 5712 ft | 262 kts | 359° |
| 2026-05-06 21:29 | 33.03948 | -97.02461 | 6248 ft | 278 kts | 11° |
| 2026-05-06 21:29 | 33.05717 | -97.01499 | 6942 ft | 290 kts | 34° |
| 2026-05-06 21:29 | 33.07104 | -96.99718 | 7662 ft | 300 kts | 56° |
| 2026-05-06 21:29 | 33.08011 | -96.97453 | 8373 ft | 306 kts | 71° |
| 2026-05-06 21:30 | 33.08429 | -96.94949 | 9056 ft | 312 kts | 85° |
| 2026-05-06 21:30 | 33.08384 | -96.92375 | 9700 ft | 316 kts | 101° |
| 2026-05-06 21:30 | 33.07987 | -96.89774 | 10307 ft | 324 kts | 104° |
| 2026-05-06 21:30 | 33.07524 | -96.87103 | 10704 ft | 340 kts | 104° |
| 2026-05-06 21:31 | 33.07047 | -96.84248 | 11047 ft | 358 kts | 105° |
| 2026-05-06 21:31 | 33.06363 | -96.81345 | 11405 ft | 371 kts | 112° |
| 2026-05-06 21:31 | 33.05441 | -96.78407 | 11758 ft | 386 kts | 116° |
| 2026-05-06 21:31 | 33.04390 | -96.75403 | 12117 ft | 400 kts | 117° |
| 2026-05-06 21:32 | 33.03281 | -96.72320 | 12621 ft | 410 kts | 118° |
| 2026-05-06 21:32 | 33.01041 | -96.66016 | 13847 ft | 421 kts | 118° |
| 2026-05-06 21:32 | 32.99904 | -96.62767 | 14466 ft | 427 kts | 118° |
| 2026-05-06 21:33 | 32.98766 | -96.59489 | 15101 ft | 432 kts | 118° |
| 2026-05-06 21:33 | 32.97625 | -96.56192 | 15752 ft | 437 kts | 118° |
| 2026-05-06 21:33 | 32.96465 | -96.52847 | 16323 ft | 443 kts | 119° |
| 2026-05-06 21:33 | 32.95283 | -96.49449 | 16938 ft | 448 kts | 119° |
| 2026-05-06 21:34 | 32.94078 | -96.45988 | 17495 ft | 454 kts | 119° |
| 2026-05-06 21:34 | 32.92876 | -96.42529 | 18090 ft | 458 kts | 119° |
| 2026-05-06 21:34 | 32.91678 | -96.38986 | 18639 ft | 466 kts | 116° |
| 2026-05-06 21:34 | 32.90819 | -96.35190 | 19130 ft | 481 kts | 104° |
| 2026-05-06 21:35 | 32.90564 | -96.31216 | 19749 ft | 490 kts | 94° |
| 2026-05-06 21:35 | 32.90832 | -96.27104 | 20219 ft | 500 kts | 84° |
| 2026-05-06 21:35 | 32.91637 | -96.23014 | 20748 ft | 507 kts | 73° |
| 2026-05-06 21:35 | 32.92899 | -96.19095 | 21274 ft | 511 kts | 66° |
| 2026-05-06 21:36 | 32.94411 | -96.15279 | 21767 ft | 515 kts | 63° |
| 2026-05-06 21:36 | 32.96017 | -96.11440 | 22205 ft | 520 kts | 62° |
| 2026-05-06 21:36 | 32.97609 | -96.07552 | 22767 ft | 522 kts | 64° |
| 2026-05-06 21:36 | 32.99146 | -96.03587 | 23142 ft | 529 kts | 65° |
| 2026-05-06 21:37 | 33.00601 | -95.99595 | 23592 ft | 533 kts | 66° |
| 2026-05-06 21:37 | 33.02026 | -95.95479 | 24023 ft | 537 kts | 68° |
| 2026-05-06 21:37 | 33.03411 | -95.91316 | 24473 ft | 541 kts | 68° |
| 2026-05-06 21:37 | 33.04759 | -95.87160 | 24920 ft | 545 kts | 69° |
| 2026-05-06 21:38 | 33.06103 | -95.82957 | 25380 ft | 549 kts | 70° |
| 2026-05-06 21:38 | 33.07461 | -95.78680 | 25798 ft | 553 kts | 69° |
| 2026-05-06 21:38 | 33.08821 | -95.74388 | 26493 ft | 550 kts | 69° |
| 2026-05-06 21:38 | 33.10174 | -95.70123 | 27083 ft | 549 kts | 70° |
| 2026-05-06 21:39 | 33.11518 | -95.65891 | 27668 ft | 548 kts | 70° |
| 2026-05-06 21:39 | 33.12877 | -95.61615 | 28114 ft | 550 kts | 70° |
| 2026-05-06 21:39 | 33.14228 | -95.57365 | 28553 ft | 551 kts | 70° |
| 2026-05-06 21:39 | 33.15588 | -95.53088 | 29108 ft | 550 kts | 70° |
| 2026-05-06 21:40 | 33.16945 | -95.48811 | 29582 ft | 550 kts | 70° |
| 2026-05-06 21:40 | 33.18302 | -95.44534 | 30151 ft | 548 kts | 70° |
| 2026-05-06 21:40 | 33.19634 | -95.40331 | 30628 ft | 548 kts | 70° |
| 2026-05-06 21:40 | 33.20993 | -95.36040 | 31116 ft | 547 kts | 69° |
| 2026-05-06 21:41 | 33.22335 | -95.31800 | 31593 ft | 546 kts | 71° |
| 2026-05-06 21:41 | 33.23680 | -95.27541 | 31999 ft | 546 kts | 71° |
| 2026-05-06 21:41 | 33.25014 | -95.23312 | 32485 ft | 543 kts | 71° |
| 2026-05-06 21:41 | 33.26344 | -95.19096 | 32894 ft | 542 kts | 71° |
| 2026-05-06 21:42 | 33.27662 | -95.14910 | 33309 ft | 542 kts | 70° |
| 2026-05-06 21:42 | 33.28994 | -95.10680 | 33713 ft | 541 kts | 71° |
| 2026-05-06 21:42 | 33.30323 | -95.06453 | 34021 ft | 543 kts | 70° |
| 2026-05-06 21:42 | 33.31653 | -95.02217 | 34349 ft | 544 kts | 70° |
| 2026-05-06 21:43 | 33.32983 | -94.97979 | 34692 ft | 545 kts | 70° |
| 2026-05-06 21:43 | 33.34315 | -94.93710 | 35069 ft | 544 kts | 70° |
| 2026-05-06 21:43 | 33.35624 | -94.89512 | 35274 ft | 548 kts | 70° |
| 2026-05-06 21:43 | 33.36957 | -94.85231 | 35509 ft | 550 kts | 70° |
| 2026-05-06 21:44 | 33.38300 | -94.80920 | 35815 ft | 551 kts | 70° |
| 2026-05-06 21:44 | 33.39634 | -94.76637 | 36139 ft | 551 kts | 69° |
| 2026-05-06 21:44 | 33.40987 | -94.72285 | 36431 ft | 552 kts | 70° |
| 2026-05-06 21:44 | 33.42323 | -94.67973 | 36664 ft | 554 kts | 69° |
| 2026-05-06 21:45 | 33.43679 | -94.63584 | 36779 ft | 559 kts | 70° |
| 2026-05-06 21:45 | 33.45045 | -94.59158 | 36955 ft | 562 kts | 68° |
| 2026-05-06 21:45 | 33.46416 | -94.54717 | 37260 ft | 563 kts | 68° |
| 2026-05-06 21:45 | 33.47772 | -94.50328 | 37578 ft | 562 kts | 68° |
| 2026-05-06 21:46 | 33.49130 | -94.45925 | 37858 ft | 563 kts | 69° |
| 2026-05-06 21:46 | 33.50495 | -94.41479 | 38129 ft | 563 kts | 68° |
| 2026-05-06 21:46 | 33.51838 | -94.37116 | 38376 ft | 564 kts | 69° |
| 2026-05-06 21:46 | 33.53203 | -94.32677 | 38484 ft | 567 kts | 69° |
| 2026-05-06 21:47 | 33.54585 | -94.28159 | 38661 ft | 568 kts | 68° |
| 2026-05-06 21:47 | 33.55927 | -94.23742 | 38937 ft | 567 kts | 70° |
| 2026-05-06 21:47 | 33.58590 | -94.14828 | 38967 ft | 565 kts | 69° |
| 2026-05-06 21:48 | 33.61198 | -94.05992 | 38968 ft | 565 kts | 69° |
| 2026-05-06 21:48 | 33.63824 | -93.97098 | 38970 ft | 564 kts | 69° |
| 2026-05-06 21:49 | 33.66428 | -93.88248 | 38968 ft | 569 kts | 70° |
| 2026-05-06 21:49 | 33.69082 | -93.79230 | 38966 ft | 576 kts | 70° |
| 2026-05-06 21:50 | 33.71762 | -93.70128 | 38966 ft | 581 kts | 69° |
| 2026-05-06 21:50 | 33.74452 | -93.60994 | 38962 ft | 582 kts | 69° |
| 2026-05-06 21:51 | 33.77122 | -93.51839 | 38964 ft | 580 kts | 70° |
| 2026-05-06 21:51 | 33.79781 | -93.42697 | 38962 ft | 581 kts | 69° |
| 2026-05-06 21:52 | 33.82462 | -93.33496 | 38965 ft | 582 kts | 71° |
| 2026-05-06 21:52 | 33.85129 | -93.24316 | 38967 ft | 582 kts | 70° |
| 2026-05-06 21:53 | 33.87796 | -93.15084 | 38968 ft | 583 kts | 69° |
| 2026-05-06 21:53 | 33.90499 | -93.05988 | 38970 ft | 581 kts | 67° |
| 2026-05-06 21:54 | 33.93682 | -92.97041 | 38970 ft | 580 kts | 62° |
| 2026-05-06 21:54 | 33.97104 | -92.88264 | 38973 ft | 581 kts | 62° |
| 2026-05-06 21:55 | 34.00535 | -92.79516 | 38967 ft | 578 kts | 62° |
| 2026-05-06 21:55 | 34.03887 | -92.70750 | 38978 ft | 580 kts | 62° |
| 2026-05-06 21:56 | 34.07221 | -92.61869 | 38979 ft | 583 kts | 62° |
| 2026-05-06 21:56 | 34.10539 | -92.52945 | 38978 ft | 582 kts | 62° |
| 2026-05-06 21:57 | 34.13843 | -92.44031 | 38982 ft | 581 kts | 62° |
| 2026-05-06 21:57 | 34.17136 | -92.35141 | 38979 ft | 581 kts | 62° |
| 2026-05-06 21:58 | 34.20447 | -92.26158 | 38984 ft | 582 kts | 63° |
| 2026-05-06 21:58 | 34.23740 | -92.17210 | 38984 ft | 585 kts | 64° |
| 2026-05-06 21:59 | 34.27023 | -92.08250 | 38988 ft | 582 kts | 63° |
| 2026-05-06 21:59 | 34.30309 | -91.99303 | 38992 ft | 584 kts | 63° |
| 2026-05-06 22:00 | 34.33595 | -91.90314 | 38989 ft | 583 kts | 62° |
| 2026-05-06 22:00 | 34.36869 | -91.81340 | 38999 ft | 583 kts | 63° |
| 2026-05-06 22:01 | 34.40126 | -91.72409 | 38996 ft | 584 kts | 63° |
| 2026-05-06 22:01 | 34.43378 | -91.63421 | 38999 ft | 584 kts | 63° |
| 2026-05-06 22:02 | 34.46635 | -91.54397 | 38998 ft | 582 kts | 64° |
| 2026-05-06 22:02 | 34.49878 | -91.45393 | 39007 ft | 583 kts | 63° |
| 2026-05-06 22:03 | 34.53094 | -91.36402 | 38999 ft | 582 kts | 63° |
| 2026-05-06 22:03 | 34.56312 | -91.27409 | 39001 ft | 583 kts | 64° |
| 2026-05-06 22:04 | 34.59564 | -91.18335 | 38999 ft | 584 kts | 63° |
| 2026-05-06 22:04 | 34.62786 | -91.09285 | 38997 ft | 581 kts | 63° |
| 2026-05-06 22:05 | 34.65983 | -91.00284 | 39000 ft | 582 kts | 64° |
| 2026-05-06 22:05 | 34.69191 | -90.91227 | 39005 ft | 585 kts | 63° |
| 2026-05-06 22:06 | 34.72383 | -90.82169 | 39004 ft | 582 kts | 64° |
| 2026-05-06 22:06 | 34.75555 | -90.73157 | 38998 ft | 584 kts | 64° |
| 2026-05-06 22:07 | 34.78735 | -90.64095 | 39004 ft | 584 kts | 65° |
| 2026-05-06 22:07 | 34.81914 | -90.55009 | 39002 ft | 585 kts | 64° |
| 2026-05-06 22:08 | 34.85081 | -90.45909 | 39002 ft | 587 kts | 63° |
| 2026-05-06 22:08 | 34.88256 | -90.36781 | 39005 ft | 586 kts | 64° |
| 2026-05-06 22:09 | 34.91436 | -90.27631 | 39010 ft | 585 kts | 64° |
| 2026-05-06 22:09 | 34.94606 | -90.18478 | 39013 ft | 586 kts | 65° |
| 2026-05-06 22:10 | 34.97760 | -90.09329 | 39012 ft | 588 kts | 65° |
| 2026-05-06 22:10 | 35.00289 | -89.99841 | 39011 ft | 591 kts | 79° |
| 2026-05-06 22:11 | 35.00677 | -89.94912 | 39012 ft | 587 kts | 93° |
| 2026-05-06 22:11 | 35.00427 | -89.89921 | 39014 ft | 581 kts | 101° |
| 2026-05-06 22:11 | 34.99239 | -89.80267 | 39011 ft | 577 kts | 106° |
| 2026-05-06 22:12 | 34.97798 | -89.70639 | 39012 ft | 577 kts | 107° |
| 2026-05-06 22:12 | 34.96336 | -89.60995 | 39008 ft | 576 kts | 106° |
| 2026-05-06 22:13 | 34.94919 | -89.51415 | 39007 ft | 579 kts | 105° |
| 2026-05-06 22:13 | 34.93509 | -89.41721 | 39005 ft | 578 kts | 106° |
| 2026-05-06 22:14 | 34.92141 | -89.32175 | 38996 ft | 573 kts | 106° |
| 2026-05-06 22:14 | 34.90746 | -89.22534 | 39000 ft | 576 kts | 105° |
| 2026-05-06 22:15 | 34.89354 | -89.12977 | 38996 ft | 577 kts | 105° |
| 2026-05-06 22:15 | 34.87945 | -89.03391 | 38994 ft | 576 kts | 106° |
| 2026-05-06 22:16 | 34.86524 | -88.93739 | 38994 ft | 575 kts | 105° |
| 2026-05-06 22:16 | 34.85124 | -88.84184 | 39000 ft | 576 kts | 106° |
| 2026-05-06 22:17 | 34.83701 | -88.74610 | 38998 ft | 578 kts | 105° |
| 2026-05-06 22:17 | 34.82252 | -88.65002 | 38992 ft | 577 kts | 105° |
| 2026-05-06 22:18 | 34.80789 | -88.55398 | 38989 ft | 577 kts | 106° |
| 2026-05-06 22:18 | 34.79340 | -88.45860 | 38993 ft | 574 kts | 106° |
| 2026-05-06 22:19 | 34.77894 | -88.36330 | 38984 ft | 579 kts | 105° |
| 2026-05-06 22:19 | 34.76406 | -88.26664 | 38980 ft | 575 kts | 106° |
| 2026-05-06 22:20 | 34.74936 | -88.17158 | 38983 ft | 572 kts | 107° |
| 2026-05-06 22:20 | 34.73454 | -88.07590 | 38978 ft | 574 kts | 106° |
| 2026-05-06 22:21 | 34.71967 | -87.98081 | 38979 ft | 573 kts | 107° |
| 2026-05-06 22:21 | 34.70486 | -87.88544 | 38984 ft | 575 kts | 105° |
| 2026-05-06 22:22 | 34.68985 | -87.79019 | 38972 ft | 573 kts | 105° |
| 2026-05-06 22:22 | 34.67506 | -87.69560 | 38963 ft | 568 kts | 105° |
| 2026-05-06 22:23 | 34.66003 | -87.60134 | 38973 ft | 570 kts | 104° |
| 2026-05-06 22:23 | 34.64474 | -87.50633 | 38966 ft | 572 kts | 106° |
| 2026-05-06 22:24 | 34.62950 | -87.41215 | 38966 ft | 572 kts | 105° |
| 2026-05-06 22:24 | 34.61295 | -87.31767 | 38957 ft | 570 kts | 107° |
| 2026-05-06 22:25 | 34.59524 | -87.22386 | 38961 ft | 569 kts | 108° |
| 2026-05-06 22:25 | 34.57735 | -87.13039 | 38959 ft | 569 kts | 107° |
| 2026-05-06 22:26 | 34.56012 | -87.03701 | 38963 ft | 573 kts | 107° |
| 2026-05-06 22:26 | 34.54353 | -86.94236 | 38955 ft | 567 kts | 107° |
| 2026-05-06 22:27 | 34.52345 | -86.84976 | 38958 ft | 567 kts | 113° |
| 2026-05-06 22:27 | 34.49936 | -86.75855 | 38950 ft | 565 kts | 114° |
| 2026-05-06 22:28 | 34.47464 | -86.66798 | 38954 ft | 567 kts | 114° |
| 2026-05-06 22:28 | 34.45049 | -86.57796 | 38946 ft | 562 kts | 114° |
| 2026-05-06 22:29 | 34.42637 | -86.48772 | 38944 ft | 565 kts | 114° |
| 2026-05-06 22:29 | 34.40242 | -86.39786 | 38945 ft | 560 kts | 114° |
| 2026-05-06 22:30 | 34.37886 | -86.30846 | 38947 ft | 562 kts | 114° |
| 2026-05-06 22:30 | 34.35784 | -86.22890 | 38946 ft | 563 kts | 112° |
| 2026-05-06 22:31 | 34.35721 | -86.22649 | 38946 ft | 563 kts | 113° |